createdAt,value
2019-03-20T00:01:02.325Z,52.00
2019-03-20T00:02:03.332Z,52.00
2019-03-20T00:03:04.427Z,52.00
2019-03-20T00:04:05.441Z,52.10
2019-03-20T00:05:06.549Z,52.00
2019-03-20T00:06:07.851Z,52.00
2019-03-20T00:07:08.860Z,52.00
2019-03-20T00:08:09.864Z,52.00
2019-03-20T00:09:10.877Z,52.00
2019-03-20T00:10:11.890Z,52.00
2019-03-20T00:11:12.912Z,52.00
2019-03-20T00:12:13.917Z,52.10
2019-03-20T00:13:14.927Z,52.00
2019-03-20T00:14:15.948Z,51.90
2019-03-20T00:15:16.949Z,51.90
2019-03-20T00:16:17.972Z,52.00
2019-03-20T00:17:18.983Z,52.00
2019-03-20T00:18:19.982Z,52.00
2019-03-20T00:19:20.998Z,51.90
2019-03-20T00:20:22.103Z,51.90
2019-03-20T00:21:23.120Z,51.90
2019-03-20T00:22:24.227Z,52.00
2019-03-20T00:23:25.227Z,52.00
2019-03-20T00:24:26.240Z,51.90
2019-03-20T00:25:27.255Z,52.00
2019-03-20T00:26:28.280Z,51.90
2019-03-20T00:27:29.288Z,51.90
2019-03-20T00:28:30.291Z,51.90
2019-03-20T00:29:31.295Z,52.00
2019-03-20T00:30:32.304Z,52.20
2019-03-20T00:31:33.369Z,52.10
2019-03-20T00:32:34.376Z,52.20
2019-03-20T00:33:35.381Z,52.40
2019-03-20T00:34:36.383Z,51.90
2019-03-20T00:35:37.392Z,51.90
2019-03-20T00:36:38.503Z,51.80
2019-03-20T00:37:39.515Z,51.70
2019-03-20T00:38:40.521Z,52.10
2019-03-20T00:39:41.537Z,52.20
2019-03-20T00:40:42.663Z,51.90
2019-03-20T00:41:43.663Z,52.10
2019-03-20T00:42:44.783Z,52.00
2019-03-20T00:43:45.796Z,52.10
2019-03-20T00:44:46.812Z,52.20
2019-03-20T00:45:47.823Z,52.20
2019-03-20T00:46:48.889Z,52.20
2019-03-20T00:47:49.889Z,52.20
2019-03-20T00:48:50.910Z,52.20
2019-03-20T00:49:51.945Z,52.10
2019-03-20T00:50:53.112Z,52.10
2019-03-20T00:51:54.118Z,52.10
2019-03-20T00:52:55.122Z,52.00
2019-03-20T00:53:56.132Z,52.00
2019-03-20T00:54:57.137Z,52.20
2019-03-20T00:55:58.149Z,52.20
2019-03-20T00:56:59.159Z,52.20
2019-03-20T00:58:00.170Z,52.10
2019-03-20T00:59:01.175Z,52.10
2019-03-20T01:00:05.459Z,52.10
2019-03-20T01:01:06.478Z,52.10
2019-03-20T01:02:07.523Z,52.40
2019-03-20T01:03:08.608Z,52.40
2019-03-20T01:04:09.643Z,52.40
2019-03-20T01:05:12.736Z,52.50
2019-03-20T01:06:13.765Z,52.50
2019-03-20T01:07:15.000Z,52.50
2019-03-20T01:08:16.062Z,52.50
2019-03-20T01:09:17.119Z,52.50
2019-03-20T01:10:19.423Z,52.70
2019-03-20T01:11:20.439Z,52.80
2019-03-20T01:12:21.461Z,52.70
2019-03-20T01:13:22.812Z,52.80
2019-03-20T01:14:23.887Z,52.80
2019-03-20T01:15:24.899Z,52.90
2019-03-20T01:16:25.903Z,52.90
2019-03-20T01:17:26.908Z,53.00
2019-03-20T01:18:27.911Z,52.90
2019-03-20T01:19:28.924Z,53.70
2019-03-20T01:20:29.927Z,53.10
2019-03-20T01:21:30.944Z,53.10
2019-03-20T01:22:31.961Z,53.10
2019-03-20T01:23:32.968Z,53.10
2019-03-20T01:24:33.994Z,53.20
2019-03-20T01:25:35.309Z,53.30
2019-03-20T01:26:36.747Z,53.30
2019-03-20T01:27:37.860Z,53.20
2019-03-20T01:28:38.882Z,53.40
2019-03-20T01:29:39.888Z,53.30
2019-03-20T01:30:40.898Z,53.50
2019-03-20T01:31:41.911Z,53.20
2019-03-20T01:32:42.915Z,53.30
2019-03-20T01:33:43.924Z,53.20
2019-03-20T01:34:44.943Z,53.10
2019-03-20T01:35:45.949Z,53.20
2019-03-20T01:36:46.975Z,53.50
2019-03-20T01:37:47.989Z,53.60
2019-03-20T01:38:48.992Z,53.60
2019-03-20T01:39:50.005Z,53.70
2019-03-20T01:40:51.008Z,53.80
2019-03-20T01:41:52.025Z,53.80
2019-03-20T01:42:53.043Z,53.80
2019-03-20T01:43:54.073Z,54.00
2019-03-20T01:44:55.079Z,53.90
2019-03-20T01:45:56.222Z,53.90
2019-03-20T01:46:57.236Z,53.80
2019-03-20T01:47:58.346Z,53.80
2019-03-20T01:48:59.349Z,54.00
2019-03-20T01:50:00.412Z,54.00
2019-03-20T01:51:19.571Z,54.10
2019-03-20T01:52:20.583Z,54.10
2019-03-20T01:53:21.593Z,54.30
2019-03-20T01:54:22.602Z,54.20
2019-03-20T01:55:23.708Z,54.30
2019-03-20T01:56:24.728Z,54.20
2019-03-20T01:57:25.731Z,54.30
2019-03-20T01:58:26.738Z,54.30
2019-03-20T01:59:28.168Z,54.30
2019-03-20T02:00:29.572Z,54.30
2019-03-20T02:01:30.797Z,54.50
2019-03-20T02:02:31.799Z,54.40
2019-03-20T02:03:32.805Z,54.30
2019-03-20T02:04:33.828Z,54.40
2019-03-20T02:05:36.534Z,54.40
2019-03-20T02:06:37.752Z,54.40
2019-03-20T02:07:38.756Z,54.30
2019-03-20T02:08:39.772Z,54.30
2019-03-20T02:09:40.783Z,54.30
2019-03-20T02:10:41.778Z,54.30
2019-03-20T02:11:42.796Z,54.30
2019-03-20T02:12:43.809Z,54.30
2019-03-20T02:13:44.812Z,54.50
2019-03-20T02:14:45.827Z,54.30
2019-03-20T02:15:46.823Z,54.30
2019-03-20T02:16:47.863Z,54.20
2019-03-20T02:17:48.864Z,54.20
2019-03-20T02:18:49.869Z,54.20
2019-03-20T02:19:51.138Z,54.30
2019-03-20T02:20:52.137Z,54.40
2019-03-20T02:21:53.149Z,54.40
2019-03-20T02:22:54.158Z,54.40
2019-03-20T02:23:55.199Z,54.50
2019-03-20T02:24:56.204Z,54.50
2019-03-20T02:25:57.443Z,54.60
2019-03-20T02:26:58.462Z,54.80
2019-03-20T02:27:59.550Z,54.60
2019-03-20T02:29:00.823Z,54.70
2019-03-20T02:30:07.648Z,54.40
2019-03-20T02:31:08.757Z,54.50
2019-03-20T02:32:09.774Z,54.70
2019-03-20T02:33:10.787Z,54.70
2019-03-20T02:34:11.801Z,54.80
2019-03-20T02:35:13.351Z,54.70
2019-03-20T02:36:14.361Z,54.80
2019-03-20T02:37:15.376Z,54.20
2019-03-20T02:38:16.382Z,54.70
2019-03-20T02:39:17.399Z,54.70
2019-03-20T02:40:18.403Z,54.70
2019-03-20T02:41:19.409Z,54.60
2019-03-20T02:42:20.425Z,54.60
2019-03-20T02:43:21.434Z,54.70
2019-03-20T02:44:22.452Z,54.60
2019-03-20T02:45:23.687Z,54.80
2019-03-20T02:46:24.706Z,55.00
2019-03-20T02:47:25.715Z,55.00
2019-03-20T02:48:26.728Z,55.20
2019-03-20T02:49:27.746Z,55.30
2019-03-20T02:50:28.771Z,55.20
2019-03-20T02:51:29.785Z,55.10
2019-03-20T02:52:30.849Z,55.10
2019-03-20T02:53:31.922Z,55.20
2019-03-20T02:54:32.936Z,55.20
2019-03-20T02:55:33.950Z,55.20
2019-03-20T02:56:35.302Z,55.20
2019-03-20T02:57:36.313Z,55.20
2019-03-20T02:58:37.345Z,55.20
2019-03-20T02:59:38.434Z,55.10
2019-03-20T03:00:39.441Z,55.20
2019-03-20T03:01:40.461Z,55.20
2019-03-20T03:02:41.476Z,55.10
2019-03-20T03:03:42.479Z,55.10
2019-03-20T03:04:43.488Z,55.10
2019-03-20T03:05:44.501Z,55.10
2019-03-20T03:06:45.514Z,55.10
2019-03-20T03:07:46.542Z,55.10
2019-03-20T03:08:47.545Z,55.10
2019-03-20T03:09:48.553Z,55.10
2019-03-20T03:10:49.559Z,55.00
2019-03-20T03:11:50.566Z,55.00
2019-03-20T03:12:51.576Z,55.00
2019-03-20T03:13:52.594Z,55.00
2019-03-20T03:14:53.604Z,55.00
2019-03-20T03:15:54.632Z,55.00
2019-03-20T03:16:55.640Z,55.00
2019-03-20T03:17:56.654Z,55.10
2019-03-20T03:18:57.664Z,55.30
2019-03-20T03:19:58.673Z,55.20
2019-03-20T03:20:59.672Z,55.20
2019-03-20T03:22:00.680Z,55.20
2019-03-20T03:23:01.717Z,55.20
2019-03-20T03:24:02.814Z,55.40
2019-03-20T03:25:06.047Z,55.50
2019-03-20T03:26:07.065Z,55.70
2019-03-20T03:27:08.080Z,55.60
2019-03-20T03:28:09.116Z,55.60
2019-03-20T03:29:10.121Z,55.70
2019-03-20T03:30:17.877Z,56.40
2019-03-20T03:31:18.925Z,55.70
2019-03-20T03:32:19.939Z,55.80
2019-03-20T03:33:20.998Z,56.00
2019-03-20T03:34:22.066Z,56.00
2019-03-20T03:35:23.089Z,55.90
2019-03-20T03:36:24.116Z,55.90
2019-03-20T03:37:25.213Z,55.90
2019-03-20T03:38:26.238Z,55.90
2019-03-20T03:39:27.255Z,56.00
2019-03-20T03:40:28.246Z,55.90
2019-03-20T03:41:29.356Z,55.90
2019-03-20T03:42:30.364Z,56.40
2019-03-20T03:43:31.388Z,56.30
2019-03-20T03:44:32.393Z,56.20
2019-03-20T03:45:33.418Z,56.10
2019-03-20T03:46:34.425Z,56.10
2019-03-20T03:47:35.445Z,56.20
2019-03-20T03:48:36.462Z,56.20
2019-03-20T03:49:37.482Z,56.00
2019-03-20T03:50:38.492Z,56.00
2019-03-20T03:51:39.503Z,56.40
2019-03-20T03:52:40.502Z,56.10
2019-03-20T03:53:41.526Z,56.20
2019-03-20T03:54:42.619Z,56.40
2019-03-20T03:55:43.626Z,56.10
2019-03-20T03:56:44.728Z,56.20
2019-03-20T03:57:45.940Z,56.20
2019-03-20T03:58:46.957Z,56.20
2019-03-20T03:59:47.961Z,56.30
2019-03-20T04:00:48.985Z,56.00
2019-03-20T04:01:50.001Z,56.10
2019-03-20T04:02:50.996Z,56.40
2019-03-20T04:03:52.007Z,56.10
2019-03-20T04:04:53.010Z,56.40
2019-03-20T04:05:54.027Z,56.50
2019-03-20T04:06:55.023Z,56.30
2019-03-20T04:07:56.029Z,56.30
2019-03-20T04:08:57.047Z,56.20
2019-03-20T04:09:58.051Z,56.20
2019-03-20T04:10:59.058Z,56.20
2019-03-20T04:12:00.061Z,56.30
2019-03-20T04:13:01.064Z,56.50
2019-03-20T04:14:02.187Z,56.30
2019-03-20T04:15:06.107Z,56.30
2019-03-20T04:16:07.115Z,57.00
2019-03-20T04:17:26.570Z,56.50
2019-03-20T04:18:27.573Z,56.70
2019-03-20T04:19:28.603Z,56.90
2019-03-20T04:20:29.604Z,56.80
2019-03-20T04:21:30.619Z,56.80
2019-03-20T04:22:31.618Z,56.80
2019-03-20T04:23:32.673Z,56.80
2019-03-20T04:24:33.683Z,56.80
2019-03-20T04:25:34.679Z,56.90
2019-03-20T04:26:36.005Z,56.80
2019-03-20T04:27:37.017Z,56.80
2019-03-20T04:28:38.039Z,56.80
2019-03-20T04:29:39.050Z,56.90
2019-03-20T04:30:40.052Z,57.00
2019-03-20T04:31:41.061Z,57.20
2019-03-20T04:32:42.399Z,57.30
2019-03-20T04:33:43.427Z,57.30
2019-03-20T04:34:44.440Z,57.20
2019-03-20T04:35:45.438Z,57.20
2019-03-20T04:36:47.976Z,57.10
2019-03-20T04:37:49.356Z,57.10
2019-03-20T04:38:50.377Z,57.10
2019-03-20T04:39:51.391Z,57.10
2019-03-20T04:40:52.405Z,57.30
2019-03-20T04:41:53.431Z,57.30
2019-03-20T04:42:54.444Z,57.20
2019-03-20T04:43:55.484Z,57.20
2019-03-20T04:44:56.486Z,57.20
2019-03-20T04:45:57.569Z,57.20
2019-03-20T04:46:58.573Z,57.20
2019-03-20T04:47:59.583Z,57.10
2019-03-20T04:49:00.612Z,57.10
2019-03-20T04:50:04.024Z,57.00
2019-03-20T04:51:05.027Z,57.00
2019-03-20T04:52:06.037Z,57.10
2019-03-20T04:53:07.151Z,56.90
2019-03-20T04:54:08.217Z,56.90
2019-03-20T04:55:12.421Z,57.00
2019-03-20T04:56:13.437Z,57.10
2019-03-20T04:57:14.436Z,57.20
2019-03-20T04:58:15.442Z,57.10
2019-03-20T04:59:16.448Z,57.10
2019-03-20T05:00:18.861Z,56.90
2019-03-20T05:01:19.876Z,56.80
2019-03-20T05:02:20.876Z,56.80
2019-03-20T05:03:21.881Z,57.10
2019-03-20T05:04:22.903Z,57.10
2019-03-20T05:05:23.955Z,57.10
2019-03-20T05:06:25.022Z,56.90
2019-03-20T05:07:26.028Z,57.00
2019-03-20T05:08:27.037Z,57.10
2019-03-20T05:09:28.059Z,57.00
2019-03-20T05:10:29.070Z,57.00
2019-03-20T05:11:30.076Z,57.00
2019-03-20T05:12:31.093Z,57.10
2019-03-20T05:13:32.095Z,57.10
2019-03-20T05:14:33.111Z,56.80
2019-03-20T05:15:34.121Z,56.80
2019-03-20T05:16:35.132Z,56.80
2019-03-20T05:17:36.136Z,56.80
2019-03-20T05:18:37.685Z,56.90
2019-03-20T05:19:38.705Z,57.10
2019-03-20T05:20:39.732Z,57.00
2019-03-20T05:21:40.813Z,56.80
2019-03-20T05:22:41.820Z,57.50
2019-03-20T05:23:42.824Z,56.90
2019-03-20T05:24:43.842Z,57.00
2019-03-20T05:25:44.856Z,56.80
2019-03-20T05:26:45.868Z,56.90
2019-03-20T05:27:46.884Z,56.80
2019-03-20T05:28:47.884Z,57.00
2019-03-20T05:29:48.908Z,57.10
2019-03-20T05:30:49.917Z,57.10
2019-03-20T05:31:50.943Z,57.10
2019-03-20T05:32:51.954Z,57.10
2019-03-20T05:33:52.956Z,57.00
2019-03-20T05:34:53.977Z,57.10
2019-03-20T05:35:54.996Z,57.10
2019-03-20T05:36:56.001Z,57.10
2019-03-20T05:37:57.020Z,57.00
2019-03-20T05:38:58.024Z,57.00
2019-03-20T05:39:59.053Z,57.00
2019-03-20T05:41:00.061Z,56.90
2019-03-20T05:42:01.075Z,56.80
2019-03-20T05:43:02.085Z,57.10
2019-03-20T05:44:03.294Z,57.10
2019-03-20T05:45:07.511Z,57.10
2019-03-20T05:46:08.674Z,57.20
2019-03-20T05:47:09.685Z,57.50
2019-03-20T05:48:10.696Z,57.50
2019-03-20T05:49:11.696Z,57.50
2019-03-20T05:50:16.509Z,57.50
2019-03-20T05:51:17.526Z,57.70
2019-03-20T05:52:18.535Z,57.70
2019-03-20T05:53:19.536Z,57.90
2019-03-20T05:54:20.560Z,58.70
2019-03-20T05:55:21.573Z,57.90
2019-03-20T05:56:22.592Z,57.50
2019-03-20T05:57:23.599Z,57.50
2019-03-20T05:58:24.599Z,58.20
2019-03-20T05:59:25.614Z,58.70
2019-03-20T06:00:28.527Z,58.50
2019-03-20T06:01:29.540Z,58.90
2019-03-20T06:02:30.553Z,59.40
2019-03-20T06:03:31.552Z,58.80
2019-03-20T06:04:32.567Z,59.20
2019-03-20T06:05:33.578Z,58.80
2019-03-20T06:06:34.589Z,58.70
2019-03-20T06:07:35.596Z,57.80
2019-03-20T06:08:36.600Z,57.70
2019-03-20T06:09:37.604Z,57.50
2019-03-20T06:10:38.629Z,57.70
2019-03-20T06:11:39.668Z,57.50
2019-03-20T06:12:41.377Z,57.50
2019-03-20T06:13:42.385Z,57.60
2019-03-20T06:14:43.404Z,57.70
2019-03-20T06:15:44.424Z,57.90
2019-03-20T06:16:45.440Z,57.90
2019-03-20T06:17:47.018Z,58.00
2019-03-20T06:18:48.164Z,58.00
2019-03-20T06:19:49.185Z,58.00
2019-03-20T06:20:50.196Z,58.20
2019-03-20T06:21:51.215Z,58.50
2019-03-20T06:22:52.216Z,58.60
2019-03-20T06:23:53.233Z,58.70
2019-03-20T06:24:54.326Z,58.60
2019-03-20T06:25:55.340Z,58.60
2019-03-20T06:26:56.362Z,58.40
2019-03-20T06:27:57.395Z,58.70
2019-03-20T06:28:58.415Z,58.60
2019-03-20T06:29:59.420Z,58.50
2019-03-20T06:31:00.431Z,58.20
2019-03-20T06:32:01.456Z,58.20
2019-03-20T06:33:02.461Z,58.20
2019-03-20T06:34:03.469Z,58.10
2019-03-20T06:35:06.581Z,58.90
2019-03-20T06:36:07.600Z,58.10
2019-03-20T06:37:08.838Z,57.90
2019-03-20T06:38:09.832Z,58.10
2019-03-20T06:39:10.837Z,58.00
2019-03-20T06:40:13.652Z,58.20
2019-03-20T06:41:14.665Z,58.10
2019-03-20T06:42:15.729Z,57.80
2019-03-20T06:43:16.735Z,57.90
2019-03-20T06:44:17.968Z,57.90
2019-03-20T06:45:19.997Z,57.80
2019-03-20T06:46:21.004Z,57.80
2019-03-20T06:47:22.113Z,57.70
2019-03-20T06:48:23.132Z,57.80
2019-03-20T06:49:24.140Z,57.70
2019-03-20T06:50:25.149Z,57.60
2019-03-20T06:51:26.187Z,57.60
2019-03-20T06:52:27.193Z,57.40
2019-03-20T06:53:28.198Z,57.40
2019-03-20T06:54:29.208Z,57.20
2019-03-20T06:55:30.213Z,57.50
2019-03-20T06:56:31.234Z,57.40
2019-03-20T06:57:32.247Z,57.50
2019-03-20T06:58:33.459Z,57.70
2019-03-20T06:59:38.281Z,57.70
2019-03-20T07:00:46.244Z,57.90
2019-03-20T07:01:47.317Z,58.10
2019-03-20T07:02:48.824Z,58.30
2019-03-20T07:03:53.638Z,57.80
2019-03-20T07:05:01.475Z,57.10
2019-03-20T07:06:12.353Z,57.30
2019-03-20T07:07:20.157Z,57.30
2019-03-20T07:08:24.873Z,57.50
2019-03-20T07:09:29.700Z,57.20
2019-03-20T07:10:43.678Z,57.20
2019-03-20T07:11:44.704Z,57.00
2019-03-20T07:12:45.704Z,57.10
2019-03-20T07:13:46.721Z,57.10
2019-03-20T07:14:47.747Z,57.10
2019-03-20T07:15:48.755Z,57.10
2019-03-20T07:16:49.804Z,56.90
2019-03-20T07:17:50.813Z,57.20
2019-03-20T07:18:51.819Z,57.50
2019-03-20T07:19:52.831Z,57.70
2019-03-20T07:20:53.848Z,57.70
2019-03-20T07:21:54.881Z,58.00
2019-03-20T07:22:55.883Z,57.60
2019-03-20T07:23:56.901Z,57.40
2019-03-20T07:24:57.917Z,57.40
2019-03-20T07:25:58.937Z,57.40
2019-03-20T07:26:59.984Z,57.20
2019-03-20T07:28:00.987Z,57.10
2019-03-20T07:29:02.073Z,57.30
2019-03-20T07:30:06.822Z,57.60
2019-03-20T07:31:15.355Z,57.40
2019-03-20T07:32:10.972Z,58.30
2019-03-20T07:33:11.986Z,57.70
2019-03-20T07:34:13.001Z,57.80
2019-03-20T07:35:14.024Z,57.50
2019-03-20T07:36:15.053Z,58.20
2019-03-20T07:37:16.084Z,57.10
2019-03-20T07:38:17.105Z,57.00
2019-03-20T07:39:18.128Z,56.90
2019-03-20T07:40:19.124Z,56.80
2019-03-20T07:41:20.186Z,57.00
2019-03-20T07:42:21.300Z,57.00
2019-03-20T07:43:22.376Z,57.10
2019-03-20T07:44:23.386Z,57.10
2019-03-20T07:45:24.409Z,56.80
2019-03-20T07:46:25.413Z,56.20
2019-03-20T07:47:26.428Z,56.20
2019-03-20T07:48:27.432Z,56.30
2019-03-20T07:49:28.456Z,56.20
2019-03-20T07:50:29.460Z,56.30
2019-03-20T07:51:30.480Z,56.20
2019-03-20T07:52:31.492Z,56.10
2019-03-20T07:53:32.509Z,56.30
2019-03-20T07:54:33.619Z,55.90
2019-03-20T07:55:34.624Z,56.50
2019-03-20T07:56:35.627Z,56.40
2019-03-20T07:57:36.658Z,56.30
2019-03-20T07:58:37.662Z,56.00
2019-03-20T07:59:38.672Z,55.70
2019-03-20T08:00:39.812Z,55.90
2019-03-20T08:01:40.829Z,55.90
2019-03-20T08:02:41.895Z,55.80
2019-03-20T08:03:42.956Z,56.10
2019-03-20T08:04:43.992Z,55.20
2019-03-20T08:05:45.346Z,55.80
2019-03-20T08:06:46.377Z,55.70
2019-03-20T08:07:47.720Z,55.70
2019-03-20T08:08:48.727Z,56.20
2019-03-20T08:09:49.741Z,56.00
2019-03-20T08:10:50.747Z,55.70
2019-03-20T08:11:51.758Z,55.40
2019-03-20T08:12:52.780Z,55.40
2019-03-20T08:13:53.803Z,55.60
2019-03-20T08:14:54.845Z,55.30
2019-03-20T08:15:55.906Z,54.90
2019-03-20T08:16:57.014Z,54.90
2019-03-20T08:17:58.016Z,54.70
2019-03-20T08:18:59.038Z,54.70
2019-03-20T08:20:00.051Z,54.50
2019-03-20T08:21:01.060Z,54.40
2019-03-20T08:22:02.104Z,53.90
2019-03-20T08:23:03.382Z,53.80
2019-03-20T08:24:04.389Z,53.40
2019-03-20T08:25:06.534Z,53.30
2019-03-20T08:26:07.536Z,53.20
2019-03-20T08:27:08.547Z,53.10
2019-03-20T08:28:09.572Z,53.10
2019-03-20T08:29:10.813Z,52.60
2019-03-20T08:30:17.670Z,52.30
2019-03-20T08:31:18.697Z,52.20
2019-03-20T08:32:19.729Z,52.50
2019-03-20T08:33:20.733Z,52.20
2019-03-20T08:34:21.766Z,52.20
2019-03-20T08:35:22.824Z,52.20
2019-03-20T08:36:23.911Z,51.50
2019-03-20T08:37:24.962Z,51.20
2019-03-20T08:38:25.977Z,51.80
2019-03-20T08:39:26.996Z,50.80
2019-03-20T08:40:28.051Z,50.60
2019-03-20T08:41:29.055Z,51.40
2019-03-20T08:42:30.124Z,50.80
2019-03-20T08:43:31.211Z,51.00
2019-03-20T08:44:32.327Z,50.70
2019-03-20T08:45:33.411Z,50.60
2019-03-20T08:46:34.474Z,51.30
2019-03-20T08:47:35.524Z,51.20
2019-03-20T08:48:36.551Z,50.70
2019-03-20T08:49:37.600Z,50.80
2019-03-20T08:50:38.599Z,50.10
2019-03-20T08:51:41.866Z,48.20
2019-03-20T08:52:43.444Z,48.70
2019-03-20T08:53:44.553Z,48.40
2019-03-20T08:54:45.643Z,47.70
2019-03-20T08:55:46.657Z,48.00
2019-03-20T08:56:47.728Z,48.40
2019-03-20T08:57:48.999Z,48.00
2019-03-20T08:58:50.046Z,48.20
2019-03-20T08:59:51.110Z,48.50
2019-03-20T09:00:52.156Z,47.70
2019-03-20T09:01:53.195Z,47.90
2019-03-20T09:02:54.271Z,47.80
2019-03-20T09:03:55.362Z,48.30
2019-03-20T09:04:56.379Z,48.60
2019-03-20T09:05:57.484Z,48.60
2019-03-20T09:06:58.492Z,48.70
2019-03-20T09:07:59.516Z,48.10
2019-03-20T09:09:00.525Z,47.50
2019-03-20T09:10:03.946Z,48.00
2019-03-20T09:11:05.007Z,47.80
2019-03-20T09:12:06.056Z,47.60
2019-03-20T09:13:07.120Z,47.20
2019-03-20T09:14:08.180Z,47.40
2019-03-20T09:15:11.580Z,47.60
2019-03-20T09:16:12.658Z,47.50
2019-03-20T09:17:13.682Z,47.50
2019-03-20T09:18:14.725Z,47.50
2019-03-20T09:19:15.840Z,47.60
2019-03-20T09:20:22.089Z,47.30
2019-03-20T09:21:23.093Z,47.40
2019-03-20T09:22:24.104Z,47.40
2019-03-20T09:23:25.134Z,47.50
2019-03-20T09:24:26.382Z,47.50
2019-03-20T09:25:27.393Z,47.00
2019-03-20T09:26:28.395Z,46.90
2019-03-20T09:27:29.415Z,46.80
2019-03-20T09:28:30.728Z,46.60
2019-03-20T09:29:35.942Z,46.40
2019-03-20T09:30:34.680Z,46.20
2019-03-20T09:31:35.690Z,46.70
2019-03-20T09:32:36.723Z,45.50
2019-03-20T09:33:37.733Z,46.10
2019-03-20T09:34:38.748Z,47.10
2019-03-20T09:35:39.836Z,46.50
2019-03-20T09:36:43.330Z,46.30
2019-03-20T09:37:51.923Z,46.80
2019-03-20T09:38:46.917Z,45.70
2019-03-20T09:39:47.931Z,45.90
2019-03-20T09:40:48.955Z,45.50
2019-03-20T09:41:49.961Z,45.50
2019-03-20T09:42:50.978Z,45.40
2019-03-20T09:43:51.991Z,45.70
2019-03-20T09:44:53.018Z,44.60
2019-03-20T09:45:54.038Z,44.70
2019-03-20T09:46:55.043Z,44.70
2019-03-20T09:47:56.064Z,44.80
2019-03-20T09:48:57.090Z,44.30
2019-03-20T09:49:58.111Z,44.20
2019-03-20T09:50:59.126Z,43.80
2019-03-20T09:52:00.131Z,43.30
2019-03-20T09:53:01.149Z,43.20
2019-03-20T09:54:02.161Z,43.10
2019-03-20T09:55:06.068Z,42.90
2019-03-20T09:56:07.080Z,43.00
2019-03-20T09:57:08.086Z,42.20
2019-03-20T09:58:11.759Z,41.60
2019-03-20T09:59:12.037Z,42.20
2019-03-20T10:00:16.068Z,41.80
2019-03-20T10:01:17.121Z,40.60
2019-03-20T10:02:18.133Z,41.30
2019-03-20T10:03:19.163Z,40.60
2019-03-20T10:04:20.401Z,41.20
2019-03-20T10:05:22.146Z,40.30
2019-03-20T10:06:23.171Z,40.40
2019-03-20T10:07:24.181Z,40.20
2019-03-20T10:08:25.233Z,38.50
2019-03-20T10:09:26.258Z,38.50
2019-03-20T10:10:28.735Z,37.90
2019-03-20T10:11:29.898Z,37.20
2019-03-20T10:12:31.039Z,38.70
2019-03-20T10:13:32.214Z,38.10
2019-03-20T10:14:33.302Z,36.40
2019-03-20T10:15:34.300Z,37.80
2019-03-20T10:16:35.371Z,38.10
2019-03-20T10:17:36.431Z,38.00
2019-03-20T10:18:37.492Z,36.40
2019-03-20T10:19:38.541Z,37.20
2019-03-20T10:20:39.589Z,38.10
2019-03-20T10:21:40.635Z,38.00
2019-03-20T10:22:41.643Z,38.00
2019-03-20T10:23:42.665Z,37.50
2019-03-20T10:24:43.741Z,37.20
2019-03-20T10:25:45.111Z,36.60
2019-03-20T10:26:46.265Z,36.70
2019-03-20T10:27:47.275Z,36.70
2019-03-20T10:28:48.315Z,37.70
2019-03-20T10:29:49.338Z,38.30
2019-03-20T10:30:50.351Z,37.50
2019-03-20T10:31:51.419Z,36.90
2019-03-20T10:32:52.477Z,37.50
2019-03-20T10:33:53.493Z,37.20
2019-03-20T10:34:54.493Z,37.10
2019-03-20T10:35:55.531Z,36.80
2019-03-20T10:36:56.548Z,35.50
2019-03-20T10:37:57.617Z,35.80
2019-03-20T10:39:06.553Z,36.70
2019-03-20T10:40:05.814Z,36.70
2019-03-20T10:41:06.867Z,36.80
2019-03-20T10:42:07.941Z,36.80
2019-03-20T10:43:08.983Z,36.50
2019-03-20T10:44:10.043Z,35.10
2019-03-20T10:45:13.207Z,34.70
2019-03-20T10:46:14.281Z,35.80
2019-03-20T10:47:15.347Z,36.20
2019-03-20T10:48:16.480Z,35.70
2019-03-20T10:49:17.560Z,36.50
2019-03-20T10:50:25.585Z,36.00
2019-03-20T10:51:26.740Z,35.90
2019-03-20T10:52:27.913Z,34.20
2019-03-20T10:53:29.055Z,35.20
2019-03-20T10:54:30.489Z,35.80
2019-03-20T10:55:31.646Z,36.00
2019-03-20T10:56:32.821Z,36.00
2019-03-20T10:57:33.963Z,35.50
2019-03-20T10:58:35.031Z,35.50
2019-03-20T10:59:36.190Z,35.70
2019-03-20T11:00:37.244Z,35.40
2019-03-20T11:01:42.548Z,35.10
2019-03-20T11:02:41.360Z,34.80
2019-03-20T11:03:42.495Z,34.70
2019-03-20T11:04:43.566Z,35.30
2019-03-20T11:05:44.611Z,34.90
2019-03-20T11:06:45.955Z,35.00
2019-03-20T11:07:47.420Z,34.80
2019-03-20T11:08:48.469Z,34.70
2019-03-20T11:09:49.546Z,34.80
2019-03-20T11:10:50.789Z,33.60
2019-03-20T11:11:51.842Z,34.00
2019-03-20T11:12:52.979Z,34.40
2019-03-20T11:13:54.052Z,33.70
2019-03-20T11:14:55.221Z,34.30
2019-03-20T11:15:56.363Z,34.20
2019-03-20T11:16:57.416Z,34.40
2019-03-20T11:17:58.675Z,34.80
2019-03-20T11:18:59.724Z,33.80
2019-03-20T11:20:00.804Z,33.90
2019-03-20T11:21:01.958Z,33.70
2019-03-20T11:22:03.341Z,33.70
2019-03-20T11:23:04.459Z,33.50
2019-03-20T11:24:05.508Z,33.90
2019-03-20T11:25:20.818Z,34.10
2019-03-20T11:26:21.871Z,34.00
2019-03-20T11:27:23.053Z,33.20
2019-03-20T11:28:24.201Z,33.90
2019-03-20T11:29:25.262Z,33.00
2019-03-20T11:30:27.689Z,32.80
2019-03-20T11:31:28.763Z,32.80
2019-03-20T11:32:29.848Z,33.00
2019-03-20T11:33:30.915Z,33.20
2019-03-20T11:34:32.007Z,33.60
2019-03-20T11:35:33.144Z,34.40
2019-03-20T11:36:34.198Z,35.00
2019-03-20T11:37:35.288Z,34.70
2019-03-20T11:38:36.391Z,34.80
2019-03-20T11:39:37.452Z,34.40
2019-03-20T11:40:39.532Z,35.40
2019-03-20T11:41:40.580Z,34.80
2019-03-20T11:42:41.623Z,34.80
2019-03-20T11:43:42.677Z,35.20
2019-03-20T11:44:43.865Z,33.70
2019-03-20T11:45:44.905Z,34.10
2019-03-20T11:46:45.957Z,34.20
2019-03-20T11:47:47.009Z,34.40
2019-03-20T11:48:48.074Z,34.50
2019-03-20T11:49:49.418Z,34.70
2019-03-20T11:50:50.469Z,34.40
2019-03-20T11:51:51.529Z,33.10
2019-03-20T11:52:52.589Z,34.00
2019-03-20T11:53:53.728Z,33.80
2019-03-20T11:54:54.788Z,34.00
2019-03-20T11:55:55.935Z,33.90
2019-03-20T11:56:57.036Z,34.60
2019-03-20T11:57:58.198Z,33.80
2019-03-20T11:58:59.246Z,33.20
2019-03-20T12:00:00.411Z,33.20
2019-03-20T12:01:01.474Z,33.40
2019-03-20T12:02:03.130Z,34.00
2019-03-20T12:03:04.303Z,34.40
2019-03-20T12:04:05.505Z,34.90
2019-03-20T12:05:07.309Z,34.80
2019-03-20T12:06:08.353Z,35.80
2019-03-20T12:07:09.402Z,35.50
2019-03-20T12:08:10.536Z,35.10
2019-03-20T12:09:11.685Z,35.30
2019-03-20T12:10:16.077Z,34.80
2019-03-20T12:11:17.136Z,33.70
2019-03-20T12:12:18.225Z,34.00
2019-03-20T12:13:19.368Z,34.70
2019-03-20T12:14:20.437Z,34.30
2019-03-20T12:15:21.605Z,34.00
2019-03-20T12:16:22.673Z,33.60
2019-03-20T12:17:23.874Z,33.50
2019-03-20T12:18:25.014Z,33.50
2019-03-20T12:19:26.105Z,33.50
2019-03-20T12:20:27.254Z,33.50
2019-03-20T12:21:28.308Z,33.90
2019-03-20T12:22:29.497Z,33.60
2019-03-20T12:23:30.637Z,33.60
2019-03-20T12:24:31.685Z,33.00
2019-03-20T12:25:37.593Z,33.60
2019-03-20T12:26:38.653Z,33.60
2019-03-20T12:27:39.714Z,33.70
2019-03-20T12:28:40.763Z,33.80
2019-03-20T12:29:41.841Z,33.70
2019-03-20T12:30:42.904Z,33.70
2019-03-20T12:31:43.952Z,33.70
2019-03-20T12:32:45.008Z,33.50
2019-03-20T12:33:46.061Z,33.80
2019-03-20T12:34:47.128Z,33.90
2019-03-20T12:35:48.184Z,33.80
2019-03-20T12:36:49.253Z,33.30
2019-03-20T12:37:50.288Z,33.80
2019-03-20T12:38:51.336Z,33.90
2019-03-20T12:39:53.436Z,33.40
2019-03-20T12:40:54.857Z,34.00
2019-03-20T12:41:55.937Z,33.30
2019-03-20T12:42:57.183Z,33.60
2019-03-20T12:43:58.235Z,34.10
2019-03-20T12:44:59.299Z,33.70
2019-03-20T12:46:00.352Z,33.60
2019-03-20T12:47:01.388Z,33.40
2019-03-20T12:48:04.054Z,32.70
2019-03-20T12:49:05.208Z,33.10
2019-03-20T12:50:09.476Z,31.80
2019-03-20T12:51:10.535Z,33.40
2019-03-20T12:52:11.580Z,33.50
2019-03-20T12:53:16.429Z,32.20
2019-03-20T12:54:17.487Z,32.20
2019-03-20T12:55:19.462Z,32.30
2019-03-20T12:56:20.605Z,31.90
2019-03-20T12:57:21.660Z,31.70
2019-03-20T12:58:22.711Z,32.10
2019-03-20T12:59:23.757Z,32.10
2019-03-20T13:00:28.467Z,32.70
2019-03-20T13:01:29.536Z,32.50
2019-03-20T13:02:30.606Z,31.70
2019-03-20T13:03:31.759Z,32.30
2019-03-20T13:04:32.915Z,31.90
2019-03-20T13:05:34.359Z,31.00
2019-03-20T13:06:35.414Z,31.00
2019-03-20T13:07:36.461Z,32.00
2019-03-20T13:08:37.518Z,31.50
2019-03-20T13:09:38.659Z,30.70
2019-03-20T13:10:39.728Z,31.20